sensor_id;sensor_type;location;lat;lon;timestamp;temperature;humidity
56761;DHT22;42633;44.494;11.356;2022-09-03T00:03:41;22.80;94.30
56761;DHT22;42633;44.494;11.356;2022-09-03T00:06:48;22.80;94.30
56761;DHT22;42633;44.494;11.356;2022-09-03T00:10:01;22.70;94.40
56761;DHT22;42633;44.494;11.356;2022-09-03T00:13:08;22.70;94.40
56761;DHT22;42633;44.494;11.356;2022-09-03T00:16:17;22.70;94.60
56761;DHT22;42633;44.494;11.356;2022-09-03T00:19:28;22.70;94.70
56761;DHT22;42633;44.494;11.356;2022-09-03T00:22:58;22.70;94.70
56761;DHT22;42633;44.494;11.356;2022-09-03T00:26:20;22.70;94.80
56761;DHT22;42633;44.494;11.356;2022-09-03T00:29:35;22.60;94.90
56761;DHT22;42633;44.494;11.356;2022-09-03T00:33:00;22.60;94.90
56761;DHT22;42633;44.494;11.356;2022-09-03T00:36:30;22.60;95.30
56761;DHT22;42633;44.494;11.356;2022-09-03T00:39:37;22.60;95.50
56761;DHT22;42633;44.494;11.356;2022-09-03T00:43:00;22.60;95.70
56761;DHT22;42633;44.494;11.356;2022-09-03T01:03:31;22.40;96.60
56761;DHT22;42633;44.494;11.356;2022-09-03T01:13:12;22.40;96.90
56761;DHT22;42633;44.494;11.356;2022-09-03T01:20:02;22.30;97.30
56761;DHT22;42633;44.494;11.356;2022-09-03T01:26:22;22.30;97.50
56761;DHT22;42633;44.494;11.356;2022-09-03T01:29:33;22.30;97.60
56761;DHT22;42633;44.494;11.356;2022-09-03T01:39:28;22.20;98.20
56761;DHT22;42633;44.494;11.356;2022-09-03T01:46:18;22.00;98.60
56761;DHT22;42633;44.494;11.356;2022-09-03T01:49:37;22.00;98.70
56761;DHT22;42633;44.494;11.356;2022-09-03T01:52:55;21.90;98.80
56761;DHT22;42633;44.494;11.356;2022-09-03T01:59:42;21.90;99.20
56761;DHT22;42633;44.494;11.356;2022-09-03T02:02:51;21.90;99.30
56761;DHT22;42633;44.494;11.356;2022-09-03T02:05:55;21.90;99.50
56761;DHT22;42633;44.494;11.356;2022-09-03T02:08:59;21.80;99.60
56761;DHT22;42633;44.494;11.356;2022-09-03T02:12:17;21.80;99.90
56761;DHT22;42633;44.494;11.356;2022-09-03T02:15:23;21.70;99.90
56761;DHT22;42633;44.494;11.356;2022-09-03T02:18:32;21.60;99.90
56761;DHT22;42633;44.494;11.356;2022-09-03T02:21:46;21.50;99.90
56761;DHT22;42633;44.494;11.356;2022-09-03T02:24:53;21.40;99.90
56761;DHT22;42633;44.494;11.356;2022-09-03T02:27:58;21.40;99.90
56761;DHT22;42633;44.494;11.356;2022-09-03T02:31:04;21.40;99.90
56761;DHT22;42633;44.494;11.356;2022-09-03T02:34:08;21.30;99.90
56761;DHT22;42633;44.494;11.356;2022-09-03T02:37:14;21.30;99.90
56761;DHT22;42633;44.494;11.356;2022-09-03T02:40:22;21.20;99.90
56761;DHT22;42633;44.494;11.356;2022-09-03T02:47:15;21.20;99.90
56761;DHT22;42633;44.494;11.356;2022-09-03T02:50:19;21.20;99.90
56761;DHT22;42633;44.494;11.356;2022-09-03T02:53:23;21.30;99.90
56761;DHT22;42633;44.494;11.356;2022-09-03T02:56:27;21.30;99.90
56761;DHT22;42633;44.494;11.356;2022-09-03T02:59:31;21.30;99.90
56761;DHT22;42633;44.494;11.356;2022-09-03T03:02:37;21.30;99.90
56761;DHT22;42633;44.494;11.356;2022-09-03T03:05:54;21.30;99.90
56761;DHT22;42633;44.494;11.356;2022-09-03T03:09:00;21.40;99.90
56761;DHT22;42633;44.494;11.356;2022-09-03T03:12:09;21.40;99.90
56761;DHT22;42633;44.494;11.356;2022-09-03T03:15:14;21.40;99.90
56761;DHT22;42633;44.494;11.356;2022-09-03T03:18:18;21.40;99.90
56761;DHT22;42633;44.494;11.356;2022-09-03T03:21:23;21.40;99.90
56761;DHT22;42633;44.494;11.356;2022-09-03T03:24:28;21.40;99.90
56761;DHT22;42633;44.494;11.356;2022-09-03T03:27:32;21.30;99.90
56761;DHT22;42633;44.494;11.356;2022-09-03T03:30:37;21.30;99.90
56761;DHT22;42633;44.494;11.356;2022-09-03T03:33:43;21.30;99.90
56761;DHT22;42633;44.494;11.356;2022-09-03T03:36:47;21.30;99.90
56761;DHT22;42633;44.494;11.356;2022-09-03T03:39:51;21.30;99.90
56761;DHT22;42633;44.494;11.356;2022-09-03T03:42:57;21.30;99.90
56761;DHT22;42633;44.494;11.356;2022-09-03T03:46:01;21.30;99.90
56761;DHT22;42633;44.494;11.356;2022-09-03T03:49:06;21.20;99.90
56761;DHT22;42633;44.494;11.356;2022-09-03T03:52:10;21.20;99.90
56761;DHT22;42633;44.494;11.356;2022-09-03T03:55:14;21.20;99.90
56761;DHT22;42633;44.494;11.356;2022-09-03T03:58:18;21.20;99.90
56761;DHT22;42633;44.494;11.356;2022-09-03T04:01:24;21.20;99.90
56761;DHT22;42633;44.494;11.356;2022-09-03T04:04:29;21.20;99.90
56761;DHT22;42633;44.494;11.356;2022-09-03T04:07:33;21.20;99.90
56761;DHT22;42633;44.494;11.356;2022-09-03T04:10:37;21.20;99.90
56761;DHT22;42633;44.494;11.356;2022-09-03T04:13:43;21.20;99.90
56761;DHT22;42633;44.494;11.356;2022-09-03T04:16:48;21.20;99.90
56761;DHT22;42633;44.494;11.356;2022-09-03T04:19:53;21.20;99.90
56761;DHT22;42633;44.494;11.356;2022-09-03T04:23:01;21.20;99.90
56761;DHT22;42633;44.494;11.356;2022-09-03T04:26:07;21.10;99.90
56761;DHT22;42633;44.494;11.356;2022-09-03T04:29:11;21.10;99.90
56761;DHT22;42633;44.494;11.356;2022-09-03T04:32:15;21.10;99.90
56761;DHT22;42633;44.494;11.356;2022-09-03T04:35:38;21.00;99.90
56761;DHT22;42633;44.494;11.356;2022-09-03T04:38:45;20.90;99.90
56761;DHT22;42633;44.494;11.356;2022-09-03T04:41:51;20.80;99.90
56761;DHT22;42633;44.494;11.356;2022-09-03T04:44:55;20.70;99.90
56761;DHT22;42633;44.494;11.356;2022-09-03T04:48:00;20.60;99.90
56761;DHT22;42633;44.494;11.356;2022-09-03T04:51:11;20.60;99.90
56761;DHT22;42633;44.494;11.356;2022-09-03T04:54:16;20.50;99.90
56761;DHT22;42633;44.494;11.356;2022-09-03T04:57:20;20.50;99.90
56761;DHT22;42633;44.494;11.356;2022-09-03T05:00:25;20.50;99.90
56761;DHT22;42633;44.494;11.356;2022-09-03T05:03:29;20.50;99.90
56761;DHT22;42633;44.494;11.356;2022-09-03T05:06:35;20.50;99.90
56761;DHT22;42633;44.494;11.356;2022-09-03T05:09:41;20.60;99.90
56761;DHT22;42633;44.494;11.356;2022-09-03T05:13:01;20.60;99.90
56761;DHT22;42633;44.494;11.356;2022-09-03T05:16:08;20.60;99.90
56761;DHT22;42633;44.494;11.356;2022-09-03T05:19:13;20.70;99.90
56761;DHT22;42633;44.494;11.356;2022-09-03T05:22:21;20.70;99.90
56761;DHT22;42633;44.494;11.356;2022-09-03T05:25:25;20.80;99.90
56761;DHT22;42633;44.494;11.356;2022-09-03T05:28:29;20.80;99.90
56761;DHT22;42633;44.494;11.356;2022-09-03T05:31:39;20.90;99.90
56761;DHT22;42633;44.494;11.356;2022-09-03T05:34:47;21.00;99.90
56761;DHT22;42633;44.494;11.356;2022-09-03T05:37:53;21.10;99.90
56761;DHT22;42633;44.494;11.356;2022-09-03T05:41:04;21.10;99.90
56761;DHT22;42633;44.494;11.356;2022-09-03T05:44:08;21.20;99.90
56761;DHT22;42633;44.494;11.356;2022-09-03T05:47:13;21.20;99.90
56761;DHT22;42633;44.494;11.356;2022-09-03T05:50:17;21.10;99.90
56761;DHT22;42633;44.494;11.356;2022-09-03T05:53:21;21.10;99.90
56761;DHT22;42633;44.494;11.356;2022-09-03T05:56:27;21.10;99.90
56761;DHT22;42633;44.494;11.356;2022-09-03T05:59:32;21.10;99.90
56761;DHT22;42633;44.494;11.356;2022-09-03T06:02:36;21.10;99.90
56761;DHT22;42633;44.494;11.356;2022-09-03T06:05:52;21.30;99.90
56761;DHT22;42633;44.494;11.356;2022-09-03T06:08:59;21.40;99.90
56761;DHT22;42633;44.494;11.356;2022-09-03T06:12:05;21.50;99.90
56761;DHT22;42633;44.494;11.356;2022-09-03T06:15:10;21.50;99.90
56761;DHT22;42633;44.494;11.356;2022-09-03T06:18:14;21.60;99.90
56761;DHT22;42633;44.494;11.356;2022-09-03T06:21:18;21.70;99.90
56761;DHT22;42633;44.494;11.356;2022-09-03T06:24:22;21.70;99.90
56761;DHT22;42633;44.494;11.356;2022-09-03T06:27:28;21.60;99.90
56761;DHT22;42633;44.494;11.356;2022-09-03T06:30:32;21.60;99.90
56761;DHT22;42633;44.494;11.356;2022-09-03T06:33:37;21.60;99.90
56761;DHT22;42633;44.494;11.356;2022-09-03T06:36:42;21.70;99.90
56761;DHT22;42633;44.494;11.356;2022-09-03T06:39:46;21.80;99.90
56761;DHT22;42633;44.494;11.356;2022-09-03T06:42:57;21.90;99.90
56761;DHT22;42633;44.494;11.356;2022-09-03T06:46:11;22.00;99.90
56761;DHT22;42633;44.494;11.356;2022-09-03T06:49:15;22.10;99.90
56761;DHT22;42633;44.494;11.356;2022-09-03T06:52:20;22.20;99.90
56761;DHT22;42633;44.494;11.356;2022-09-03T06:55:24;22.20;99.90
56761;DHT22;42633;44.494;11.356;2022-09-03T06:58:33;22.30;99.90
56761;DHT22;42633;44.494;11.356;2022-09-03T07:01:41;22.40;99.90
56761;DHT22;42633;44.494;11.356;2022-09-03T07:04:47;22.40;99.90
56761;DHT22;42633;44.494;11.356;2022-09-03T07:07:52;22.50;99.90
56761;DHT22;42633;44.494;11.356;2022-09-03T07:10:56;22.50;99.90
56761;DHT22;42633;44.494;11.356;2022-09-03T07:14:02;22.40;99.90
56761;DHT22;42633;44.494;11.356;2022-09-03T07:17:07;22.40;99.90
56761;DHT22;42633;44.494;11.356;2022-09-03T07:20:11;22.50;99.90
56761;DHT22;42633;44.494;11.356;2022-09-03T07:23:15;22.80;99.90
56761;DHT22;42633;44.494;11.356;2022-09-03T07:26:25;23.10;99.90
56761;DHT22;42633;44.494;11.356;2022-09-03T07:29:30;23.30;99.90
56761;DHT22;42633;44.494;11.356;2022-09-03T07:32:34;23.50;99.90
56761;DHT22;42633;44.494;11.356;2022-09-03T07:35:44;23.60;99.90
56761;DHT22;42633;44.494;11.356;2022-09-03T07:38:48;23.70;99.90
56761;DHT22;42633;44.494;11.356;2022-09-03T07:41:52;23.90;99.90
56761;DHT22;42633;44.494;11.356;2022-09-03T07:44:57;23.90;99.90
56761;DHT22;42633;44.494;11.356;2022-09-03T07:48:02;24.00;99.90
56761;DHT22;42633;44.494;11.356;2022-09-03T07:51:08;24.10;99.90
56761;DHT22;42633;44.494;11.356;2022-09-03T07:54:12;24.20;99.90
56761;DHT22;42633;44.494;11.356;2022-09-03T07:57:16;24.20;99.90
56761;DHT22;42633;44.494;11.356;2022-09-03T08:00:20;24.30;99.90
56761;DHT22;42633;44.494;11.356;2022-09-03T08:03:24;24.50;99.90
56761;DHT22;42633;44.494;11.356;2022-09-03T08:06:29;24.50;99.90
56761;DHT22;42633;44.494;11.356;2022-09-03T08:09:33;24.70;99.90
56761;DHT22;42633;44.494;11.356;2022-09-03T08:12:37;24.70;99.90
56761;DHT22;42633;44.494;11.356;2022-09-03T08:15:41;24.60;99.90
56761;DHT22;42633;44.494;11.356;2022-09-03T08:18:46;24.60;99.90
56761;DHT22;42633;44.494;11.356;2022-09-03T08:21:50;24.60;99.90
56761;DHT22;42633;44.494;11.356;2022-09-03T08:24:54;24.60;99.90
56761;DHT22;42633;44.494;11.356;2022-09-03T08:27:58;24.60;99.90
56761;DHT22;42633;44.494;11.356;2022-09-03T08:31:12;24.70;99.90
56761;DHT22;42633;44.494;11.356;2022-09-03T08:34:16;24.70;99.90
56761;DHT22;42633;44.494;11.356;2022-09-03T08:37:20;24.90;99.90
56761;DHT22;42633;44.494;11.356;2022-09-03T08:40:25;25.00;99.80
56761;DHT22;42633;44.494;11.356;2022-09-03T08:43:34;25.10;99.90
56761;DHT22;42633;44.494;11.356;2022-09-03T08:46:47;25.20;99.70
56761;DHT22;42633;44.494;11.356;2022-09-03T08:49:59;25.40;99.40
56761;DHT22;42633;44.494;11.356;2022-09-03T08:56:27;25.50;99.30
56761;DHT22;42633;44.494;11.356;2022-09-03T08:59:33;25.60;99.30
56761;DHT22;42633;44.494;11.356;2022-09-03T09:02:52;25.70;99.20
56761;DHT22;42633;44.494;11.356;2022-09-03T09:09:47;25.90;98.90
56761;DHT22;42633;44.494;11.356;2022-09-03T09:13:26;25.90;98.90
56761;DHT22;42633;44.494;11.356;2022-09-03T09:16:42;25.60;99.30
56761;DHT22;42633;44.494;11.356;2022-09-03T09:23:32;26.00;99.10
56761;DHT22;42633;44.494;11.356;2022-09-03T09:26:40;26.20;98.70
56761;DHT22;42633;44.494;11.356;2022-09-03T09:29:48;26.50;98.40
56761;DHT22;42633;44.494;11.356;2022-09-03T09:32:53;26.50;98.30
56761;DHT22;42633;44.494;11.356;2022-09-03T09:36:09;26.50;98.40
56761;DHT22;42633;44.494;11.356;2022-09-03T09:39:16;26.50;98.40
56761;DHT22;42633;44.494;11.356;2022-09-03T09:42:21;26.70;98.10
56761;DHT22;42633;44.494;11.356;2022-09-03T09:45:26;26.90;98.00
56761;DHT22;42633;44.494;11.356;2022-09-03T09:48:36;27.00;97.70
56761;DHT22;42633;44.494;11.356;2022-09-03T09:51:41;27.10;97.70
56761;DHT22;42633;44.494;11.356;2022-09-03T09:54:45;27.00;97.60
56761;DHT22;42633;44.494;11.356;2022-09-03T09:58:05;26.90;97.80
56761;DHT22;42633;44.494;11.356;2022-09-03T10:01:17;26.80;98.00
56761;DHT22;42633;44.494;11.356;2022-09-03T10:04:29;26.80;97.90
56761;DHT22;42633;44.494;11.356;2022-09-03T10:07:34;26.60;98.20
56761;DHT22;42633;44.494;11.356;2022-09-03T10:10:43;26.50;98.50
56761;DHT22;42633;44.494;11.356;2022-09-03T10:13:52;26.50;98.60
56761;DHT22;42633;44.494;11.356;2022-09-03T10:17:17;26.40;98.70
56761;DHT22;42633;44.494;11.356;2022-09-03T10:20:35;26.30;99.00
56761;DHT22;42633;44.494;11.356;2022-09-03T10:24:18;26.30;99.00
56761;DHT22;42633;44.494;11.356;2022-09-03T10:27:27;26.10;99.10
56761;DHT22;42633;44.494;11.356;2022-09-03T10:34:17;25.80;99.90
56761;DHT22;42633;44.494;11.356;2022-09-03T10:44:57;25.60;99.90
56761;DHT22;42633;44.494;11.356;2022-09-03T10:51:20;25.70;99.90
56761;DHT22;42633;44.494;11.356;2022-09-03T11:00:51;25.90;99.90
56761;DHT22;42633;44.494;11.356;2022-09-03T11:07:06;25.90;99.90
56761;DHT22;42633;44.494;11.356;2022-09-03T11:10:27;25.80;99.90
56761;DHT22;42633;44.494;11.356;2022-09-03T11:13:39;26.00;99.90
56761;DHT22;42633;44.494;11.356;2022-09-03T11:16:48;26.10;99.70
56761;DHT22;42633;44.494;11.356;2022-09-03T11:20:16;26.20;99.80
56761;DHT22;42633;44.494;11.356;2022-09-03T11:23:23;26.20;99.90
56761;DHT22;42633;44.494;11.356;2022-09-03T11:26:30;26.10;99.90
56761;DHT22;42633;44.494;11.356;2022-09-03T11:29:56;26.10;99.90
56761;DHT22;42633;44.494;11.356;2022-09-03T11:33:08;26.20;99.70
56761;DHT22;42633;44.494;11.356;2022-09-03T11:36:29;26.30;99.80
56761;DHT22;42633;44.494;11.356;2022-09-03T11:39:35;26.40;99.60
56761;DHT22;42633;44.494;11.356;2022-09-03T11:42:43;26.50;99.40
56761;DHT22;42633;44.494;11.356;2022-09-03T11:45:48;26.60;99.50
56761;DHT22;42633;44.494;11.356;2022-09-03T11:48:55;26.80;99.10
56761;DHT22;42633;44.494;11.356;2022-09-03T11:52:04;27.00;99.00
56761;DHT22;42633;44.494;11.356;2022-09-03T11:55:24;27.30;98.50
56761;DHT22;42633;44.494;11.356;2022-09-03T11:58:34;27.70;98.00
56761;DHT22;42633;44.494;11.356;2022-09-03T12:01:43;28.00;97.50
56761;DHT22;42633;44.494;11.356;2022-09-03T12:18:44;28.60;96.50
56761;DHT22;42633;44.494;11.356;2022-09-03T12:21:50;28.60;96.40
56761;DHT22;42633;44.494;11.356;2022-09-03T12:24:55;28.60;96.50
56761;DHT22;42633;44.494;11.356;2022-09-03T12:28:01;28.60;96.50
56761;DHT22;42633;44.494;11.356;2022-09-03T12:34:24;28.70;96.20
56761;DHT22;42633;44.494;11.356;2022-09-03T12:37:32;28.90;95.90
56761;DHT22;42633;44.494;11.356;2022-09-03T12:40:42;28.90;95.80
56761;DHT22;42633;44.494;11.356;2022-09-03T12:43:55;29.00;95.50
56761;DHT22;42633;44.494;11.356;2022-09-03T12:47:11;29.30;95.20
56761;DHT22;42633;44.494;11.356;2022-09-03T12:50:21;29.30;95.00
56761;DHT22;42633;44.494;11.356;2022-09-03T12:53:26;29.30;95.30
56761;DHT22;42633;44.494;11.356;2022-09-03T12:56:33;29.00;95.20
56761;DHT22;42633;44.494;11.356;2022-09-03T12:59:37;29.20;95.20
56761;DHT22;42633;44.494;11.356;2022-09-03T13:06:09;29.30;95.00
56761;DHT22;42633;44.494;11.356;2022-09-03T13:09:20;29.20;94.90
56761;DHT22;42633;44.494;11.356;2022-09-03T13:12:31;29.00;95.20
56761;DHT22;42633;44.494;11.356;2022-09-03T13:15:36;28.80;95.20
56761;DHT22;42633;44.494;11.356;2022-09-03T13:23:07;27.90;96.10
56761;DHT22;42633;44.494;11.356;2022-09-03T13:39:11;27.70;96.50
56761;DHT22;42633;44.494;11.356;2022-09-03T13:45:58;27.90;96.80
56761;DHT22;42633;44.494;11.356;2022-09-03T13:56:25;27.60;96.80
56761;DHT22;42633;44.494;11.356;2022-09-03T14:10:05;27.60;96.90
56761;DHT22;42633;44.494;11.356;2022-09-03T14:17:14;27.30;97.20
56761;DHT22;42633;44.494;11.356;2022-09-03T14:20:28;27.20;97.60
56761;DHT22;42633;44.494;11.356;2022-09-03T14:26:57;27.10;97.90
56761;DHT22;42633;44.494;11.356;2022-09-03T14:30:05;27.10;98.10
56761;DHT22;42633;44.494;11.356;2022-09-03T14:33:55;27.10;98.10
56761;DHT22;42633;44.494;11.356;2022-09-03T14:40:44;27.00;98.10
56761;DHT22;42633;44.494;11.356;2022-09-03T14:45:09;27.10;98.00
56761;DHT22;42633;44.494;11.356;2022-09-03T15:01:38;28.50;97.70
56761;DHT22;42633;44.494;11.356;2022-09-03T15:11:27;28.00;97.30
56761;DHT22;42633;44.494;11.356;2022-09-03T15:14:51;27.70;97.40
56761;DHT22;42633;44.494;11.356;2022-09-03T15:22:16;27.50;98.10
56761;DHT22;42633;44.494;11.356;2022-09-03T15:28:32;27.70;98.00
56761;DHT22;42633;44.494;11.356;2022-09-03T15:35:05;27.90;97.40
56761;DHT22;42633;44.494;11.356;2022-09-03T15:39:14;27.80;97.60
56761;DHT22;42633;44.494;11.356;2022-09-03T15:41:57;27.50;97.90
56761;DHT22;42633;44.494;11.356;2022-09-03T15:45:13;27.50;98.00
56761;DHT22;42633;44.494;11.356;2022-09-03T15:49:22;27.50;98.20
56761;DHT22;42633;44.494;11.356;2022-09-03T15:52:44;27.50;98.10
56761;DHT22;42633;44.494;11.356;2022-09-03T15:55:44;27.40;97.90
56761;DHT22;42633;44.494;11.356;2022-09-03T15:59:06;27.30;98.10
56761;DHT22;42633;44.494;11.356;2022-09-03T16:03:08;27.20;98.20
56761;DHT22;42633;44.494;11.356;2022-09-03T16:09:01;26.90;98.30
56761;DHT22;42633;44.494;11.356;2022-09-03T16:12:47;26.80;98.60
56761;DHT22;42633;44.494;11.356;2022-09-03T16:16:01;26.70;98.50
56761;DHT22;42633;44.494;11.356;2022-09-03T16:19:15;26.70;98.60
56761;DHT22;42633;44.494;11.356;2022-09-03T16:22:29;26.80;98.60
56761;DHT22;42633;44.494;11.356;2022-09-03T16:29:17;26.90;98.40
56761;DHT22;42633;44.494;11.356;2022-09-03T16:32:40;26.80;98.20
56761;DHT22;42633;44.494;11.356;2022-09-03T17:13:57;26.10;99.70
56761;DHT22;42633;44.494;11.356;2022-09-03T17:24:22;25.90;99.90
56761;DHT22;42633;44.494;11.356;2022-09-03T17:27:48;25.80;99.90
56761;DHT22;42633;44.494;11.356;2022-09-03T17:34:59;25.70;99.90
56761;DHT22;42633;44.494;11.356;2022-09-03T17:41:52;25.60;99.90
56761;DHT22;42633;44.494;11.356;2022-09-03T17:45:13;25.40;99.90
56761;DHT22;42633;44.494;11.356;2022-09-03T17:51:48;25.30;99.90
56761;DHT22;42633;44.494;11.356;2022-09-03T17:58:34;25.20;99.90
56761;DHT22;42633;44.494;11.356;2022-09-03T18:08:32;25.10;99.90
56761;DHT22;42633;44.494;11.356;2022-09-03T18:12:08;25.10;99.90
56761;DHT22;42633;44.494;11.356;2022-09-03T18:15:21;25.10;99.90
56761;DHT22;42633;44.494;11.356;2022-09-03T18:18:50;25.00;99.90
56761;DHT22;42633;44.494;11.356;2022-09-03T18:21:59;25.00;99.90
56761;DHT22;42633;44.494;11.356;2022-09-03T18:25:24;25.00;99.90
56761;DHT22;42633;44.494;11.356;2022-09-03T18:29:11;24.90;99.90
56761;DHT22;42633;44.494;11.356;2022-09-03T18:32:36;24.90;99.90
56761;DHT22;42633;44.494;11.356;2022-09-03T18:35:58;24.90;99.90
56761;DHT22;42633;44.494;11.356;2022-09-03T18:39:28;24.90;99.90
56761;DHT22;42633;44.494;11.356;2022-09-03T18:43:02;24.90;99.90
56761;DHT22;42633;44.494;11.356;2022-09-03T18:57:38;24.80;99.90
56761;DHT22;42633;44.494;11.356;2022-09-03T19:01:46;24.80;99.90
56761;DHT22;42633;44.494;11.356;2022-09-03T19:05:24;24.70;99.90
56761;DHT22;42633;44.494;11.356;2022-09-03T19:20:11;24.40;99.90
56761;DHT22;42633;44.494;11.356;2022-09-03T19:23:36;24.40;99.90
56761;DHT22;42633;44.494;11.356;2022-09-03T19:27:24;24.40;99.90
56761;DHT22;42633;44.494;11.356;2022-09-03T19:31:27;24.40;99.90
56761;DHT22;42633;44.494;11.356;2022-09-03T19:46:08;24.20;99.90
56761;DHT22;42633;44.494;11.356;2022-09-03T19:50:02;24.20;99.90
56761;DHT22;42633;44.494;11.356;2022-09-03T19:53:31;24.10;99.90
56761;DHT22;42633;44.494;11.356;2022-09-03T19:56:57;24.00;99.90
56761;DHT22;42633;44.494;11.356;2022-09-03T20:00:21;24.00;99.90
56761;DHT22;42633;44.494;11.356;2022-09-03T20:03:43;24.00;99.90
56761;DHT22;42633;44.494;11.356;2022-09-03T20:07:08;24.00;99.90
56761;DHT22;42633;44.494;11.356;2022-09-03T20:10:34;24.00;99.90
56761;DHT22;42633;44.494;11.356;2022-09-03T20:13:40;24.00;99.90
56761;DHT22;42633;44.494;11.356;2022-09-03T20:17:14;24.00;99.90
56761;DHT22;42633;44.494;11.356;2022-09-03T20:20:28;24.00;99.90
56761;DHT22;42633;44.494;11.356;2022-09-03T20:28:32;23.90;99.90
56761;DHT22;42633;44.494;11.356;2022-09-03T20:34:55;23.80;99.90
56761;DHT22;42633;44.494;11.356;2022-09-03T20:44:51;23.70;99.90
56761;DHT22;42633;44.494;11.356;2022-09-03T20:48:24;23.60;99.90
56761;DHT22;42633;44.494;11.356;2022-09-03T20:51:50;23.60;99.90
56761;DHT22;42633;44.494;11.356;2022-09-03T20:55:11;23.60;99.90
56761;DHT22;42633;44.494;11.356;2022-09-03T21:01:56;23.50;99.90
56761;DHT22;42633;44.494;11.356;2022-09-03T21:05:31;23.50;99.90
56761;DHT22;42633;44.494;11.356;2022-09-03T21:12:39;23.40;99.90
56761;DHT22;42633;44.494;11.356;2022-09-03T21:23:27;23.40;99.90
56761;DHT22;42633;44.494;11.356;2022-09-03T21:26:26;23.30;99.90
56761;DHT22;42633;44.494;11.356;2022-09-03T21:29:38;23.30;99.90
56761;DHT22;42633;44.494;11.356;2022-09-03T21:32:55;23.30;99.90
56761;DHT22;42633;44.494;11.356;2022-09-03T21:36:06;23.30;99.90
56761;DHT22;42633;44.494;11.356;2022-09-03T21:39:18;23.20;99.90
56761;DHT22;42633;44.494;11.356;2022-09-03T21:46:06;23.10;99.90
56761;DHT22;42633;44.494;11.356;2022-09-03T21:49:16;23.10;99.90
56761;DHT22;42633;44.494;11.356;2022-09-03T21:59:08;23.10;99.90
56761;DHT22;42633;44.494;11.356;2022-09-03T22:02:30;23.10;99.90
56761;DHT22;42633;44.494;11.356;2022-09-03T22:05:56;23.10;99.90
56761;DHT22;42633;44.494;11.356;2022-09-03T22:09:15;23.20;99.90
56761;DHT22;42633;44.494;11.356;2022-09-03T22:15:36;23.10;99.90
56761;DHT22;42633;44.494;11.356;2022-09-03T22:18:44;23.10;99.90
56761;DHT22;42633;44.494;11.356;2022-09-03T22:21:57;23.10;99.90
56761;DHT22;42633;44.494;11.356;2022-09-03T22:29:02;23.00;99.90
56761;DHT22;42633;44.494;11.356;2022-09-03T22:42:35;22.80;99.90
56761;DHT22;42633;44.494;11.356;2022-09-03T22:46:17;22.80;99.90
56761;DHT22;42633;44.494;11.356;2022-09-03T22:49:33;22.90;99.90
56761;DHT22;42633;44.494;11.356;2022-09-03T22:56:11;22.80;99.90
56761;DHT22;42633;44.494;11.356;2022-09-03T22:59:20;22.80;99.90
56761;DHT22;42633;44.494;11.356;2022-09-03T23:02:32;22.80;99.90
56761;DHT22;42633;44.494;11.356;2022-09-03T23:05:49;22.80;99.90
56761;DHT22;42633;44.494;11.356;2022-09-03T23:09:05;22.70;99.90
56761;DHT22;42633;44.494;11.356;2022-09-03T23:12:15;22.70;99.90
56761;DHT22;42633;44.494;11.356;2022-09-03T23:15:24;22.70;99.90
56761;DHT22;42633;44.494;11.356;2022-09-03T23:18:34;22.70;99.90
56761;DHT22;42633;44.494;11.356;2022-09-03T23:21:49;22.70;99.90
56761;DHT22;42633;44.494;11.356;2022-09-03T23:25:27;22.70;99.90
56761;DHT22;42633;44.494;11.356;2022-09-03T23:28:35;22.60;99.90
56761;DHT22;42633;44.494;11.356;2022-09-03T23:31:41;22.60;99.90
56761;DHT22;42633;44.494;11.356;2022-09-03T23:34:46;22.60;99.90
56761;DHT22;42633;44.494;11.356;2022-09-03T23:38:12;22.60;99.90
56761;DHT22;42633;44.494;11.356;2022-09-03T23:42:10;22.60;99.90
